AirNav  
 
 1040 users online  

2D1 Barber Airport
Alliance, Ohio, USA

GOING TO ALLIANCE?


FAA INFORMATION EFFECTIVE 09 NOVEMBER 2017

Location

FAA Identifier: 2D1
Lat/Long: 40-58-11.8947N / 081-05-55.2011W
40-58.198245N / 081-05.920018W
40.9699708 / -81.0986670
(estimated)
Elevation: 1062 ft. / 324 m (estimated)
Variation: 07W (1985)
From city: 3 miles N of ALLIANCE, OH
Time zone: UTC -5 (UTC -4 during Daylight Saving Time)
Zip code: 44601

Airport Operations

Airport use: Open to the public
Activation date: 04/1947
Control tower: no
ARTCC: CLEVELAND CENTER
FSS: CLEVELAND FLIGHT SERVICE STATION
NOTAMs facility: CLE (NOTAM-D service available)
Attendance: 0800-DUSK
Wind indicator: yes
Segmented circle: no

Airport Communications

CTAF: 122.9
WX ASOS at CAK (16 nm W): PHONE 330-966-9545
WX AWOS-3 at POV (16 nm NW): 118.675 (330-298-9353)
WX ASOS at AKR (17 nm W): 126.825 (330-724-4237)

Nearby radio navigation aids

VOR radial/distance  VOR name  Freq  Var
ACOr155/9.5AKRON VOR/DME114.4004W
BSVr052/20.5BRIGGS VOR/DME112.4004W
YNGr226/28.9YOUNGSTOWN VORTAC109.0005W
CXRr180/32.9CHARDON VOR/DME112.7005W

 
NDB name  Hdg/Dist  Freq  Var  ID
AKRON122/14.436207WAK .- -.-
CASTLE273/31.127209WUCP ..- -.-. .--.

Airport Services

Fuel available: 100LL
Parking: tiedowns
Airframe service: MAJOR
Powerplant service: MAJOR
Bottled oxygen: NONE
Bulk oxygen: NONE

Runway Information

Runway 18/36

Dimensions: 3500 x 80 ft. / 1067 x 24 m
Surface: turf, in fair condition
RUNWAY 18  RUNWAY 36
Latitude: 40-58.420167N40-57.843500N
Longitude: 081-05.922500W081-05.917667W
Gradient: 0.5%0.5%
Traffic pattern: leftleft
Runway end identifier lights: nono
Obstructions: 67 ft. trees, 35 ft. from runway, 130 ft. right of centerline68 ft. trees, 639 ft. from runway, 188 ft. right of centerline, 9:1 slope to clear

Runway 9/27

Dimensions: 2088 x 130 ft. / 636 x 40 m
Surface: turf, in good condition
Runway edge lights: non-standard
NSTD LGTS NOT FOR PUBLIC USE.
Runway edge markings: 09/27 & RWY 18/36 MARKED WITH CONES.
Gradient: E
RUNWAY 9  RUNWAY 27
Latitude: 40-58.311103N40-58.308028N
Longitude: 081-06.146792W081-05.693030W
Elevation: 1056.0 ft.1067.0 ft.
Gradient: 0.5% UP0.8%
Traffic pattern: leftleft
Runway end identifier lights: nono
Obstructions: 14 ft. pline, 38 ft. from runway, 60 ft. left of centerline, 2:1 slope to clear64 ft. trees, 100 ft. left of centerline

Airport Ownership and Management from official FAA records

Ownership: Privately-owned
Owner: FORREST A BARBER
13820 UNION AVE NE
ALLIANCE, OH 44601
Phone (330) 495-5447
Manager: FORREST A BARBER
13871 UNION AVE NE
ALLIANCE, OH 44601
Phone (330) 495-5447

Airport Operational Statistics

Aircraft based on the field: 16
Single engine airplanes: 11
Helicopters: 2
Ultralights: 3
    
Aircraft operations: avg 26/day *
96% local general aviation
4% transient general aviation
* for 12-month period ending 22 July 2014

Additional Remarks

BE ALERT WHEN RYS ARE WET.
AEROBATIC PRACTICE AREA WI 1 NM SFC-5000'MSL, HRS IREG, CHECK NOTAMS.
OCNL GND LEVEL AEROBATIC PRACTICE.
USE CARE - MODEL ACFT IN AREA.
PPR FOR NIGHT & WINTER OPNS CALL AMGR PHONE 330-495-5447.
PARACHUTE OPERATIONS WITHIN 5NM, SURFACE - 18,000 FT MSL, CHECK CAK APPCH.
FOR IFR CLEARANCE CTC CLEVELAND ARTCC (ZOB) 120.6/298.95 OR CALL ZOB 440-774-0485.

Instrument Procedures

There are no published instrument procedures at 2D1.

Some nearby airports with instrument procedures:

3G6 - Tri-City Airport (6 nm SE)
38D - Salem Airpark Inc (11 nm E)
KCAK - Akron-Canton Regional Airport (16 nm W)
KPOV - Portage County Airport (16 nm NW)
KAKR - Akron Fulton International Airport (17 nm W)
1G3 - Kent State University Airport (18 nm NW)
4G4 - Youngstown Elser Metro Airport (19 nm E)
 
Loc | Ops | Rwys | IFR | FBO | Links
Com | Nav | Svcs | Stats | Notes


 
Area around 2D1 (Barber Airport)
 
Road maps at: MapQuest Bing Google
 
Aerial photo
WARNING: Photo may not be current or correct
Aerial photo of 2D1 (Barber Airport)
Taken early June 2007
from the northwest, with 27 on the upper left and 36 on the upper right

Do you have a better or more recent aerial photo of Barber Airport that you would like to share? If so, please send us your photo.

 
Sectional chart

 
Airport distance calculator
Flying to Barber Airport? Find the distance to fly.

From to 2D1

Sunrise and sunset
Times for 18-Nov-2017
 Local
(UTC-5)
 Zulu
(UTC)
Morning civil twilight06:4711:47
Sunrise07:1612:16
Sunset17:0322:03
Evening civil twilight17:3322:33

Current date and time
Zulu (UTC)  18-Nov-2017 16:39:34
Local (UTC-5)  18-Nov-2017 11:39:34
 
METAR
KPOV 
16nm NW 
181625Z AUTO 00000KT 10SM OVC008 08/07 A2952 RMK AO2 P0001 T00750066
KCAK 
16nm W 
181551Z 19012KT 6SM BR BKN006 OVC036 08/06 A2953 RMK AO2 RAE51 SLP004 P0002 T00830061 $
KAKR 
17nm W 
181614Z AUTO 20012KT 10SM BKN009 BKN015 OVC037 09/08 A2952 RMK AO2 CIG 008V013 T00940078
KYNG 
26nm NE 
181551Z 18007KT 10SM OVC003 07/06 A2955 RMK AO2 RAE34 SLP011 P0003 T00670061
KUCP 
31nm E 
181613Z AUTO VRB06KT 10SM FEW004 BKN009 OVC031 07/07 A2955 RMK AO2 RAE04 CIG 006V014 P0000
TAF
KCAK 
16nm W 
181326Z 1813/1912 20010G20KT 3SM -SHRA OVC025 WS020/20045KT TEMPO 1813/1815 2SM SHRA BR OVC015 FM181500 20015G35KT 3SM SHRA VCTS OVC025CB WS020/22045KT FM181800 20015G35KT P6SM OVC010 FM182300 25015G35KT 2SM TSRA OVC003CB TEMPO 1900/1901 VRB30G45KT 1SM +TSRA OVC003CB FM190200 27020G35KT 3SM -SHRA BR OVC007 FM190500 30020G40KT 3SM -SHRA BR OVC010 FM190800 30020G40KT P6SM VCSH OVC015
NOTAMs
Click for the latest NOTAMs
NOTAMs are issued by the DoD/FAA and will open in a separate window not controlled by AirNav.

 

 
 

Would you like to see your business listed on this page?

 If your business provides an interesting product or service to pilots, flight crews, aircraft, or users of the Barber Airport, you should consider listing it here.  To start the listing process, click on the button below
 
Add a business
 

Other Pages about Barber Airport

Update a link
 
Copyright © AirNav, LLC. All rights reserved. Privacy Policy  Contact